Gran Canaria > ESTACION METEOROLÓGICA Mogán

DATOS ACTUALES Online

Ultima actulizacion 24 minutos

21.1 ºC

Temperatura

38

Humedad (%)

Presión (mb)

0

Precipitación (mm)

6.7 O

Viento (Km/h)

DATOS DIARIOS

Temperatura últimas 24 horas (ºC)

Humedad últimas 24 horas (%)

Presión atmosférica últimas 24 horas (mb)

Precipitaciones últimas 23 horas (mm)

Viento últimas 24 horas (Km/h)

Hora Temperatura (°C) ºC Precipitación (mm) mm Presión (mb) mb Humedad (%) % Viento (Km/h) km/h
19 - 11:00 17.1 0.1 0 73 7.8 SO
19 - 12:00 17.8 0.1 0 71 9.1 O
19 - 13:00 19.6 0.1 0 61 7.4 SO
19 - 14:00 21.1 0.1 0 51 6.7 O
19 - 15:00 21.6 0.1 0 44 7.2 O
19 - 16:00 21.6 0.1 0 38 6.7 O
19 - 17:00 21.6 0.1 0 40 7.6 O
19 - 18:00 21.3 0.1 0 39 7.2 O
19 - 19:00 20.6 0.1 0 39 5.5 O
19 - 20:00 20.3 0.1 0 47 2.9 O
19 - 21:00 18.9 0.1 0 65 5.5 O
19 - 22:00 21.4 0.1 0 39 4.3 O
19 - 23:00 21.7 0.1 0 39 4.1 O
20 - 00:00 21.2 0 0 42 4.4 NO
20 - 01:00 21.1 0 0 42 5.2 O
20 - 02:00 21 0 0 43 5 O
20 - 03:00 20.8 0 0 43 6.7 O
20 - 04:00 20.7 0 0 43 6.1 O
20 - 05:00 21.2 0 0 39 5.8 O
20 - 06:00 20.9 0 0 39 5 O
20 - 07:00 20.6 0 0 39 5.5 O
20 - 08:00 20.8 0 0 38 5.9 O
20 - 09:00 20.5 0 0 38 6.7 O
20 - 10:00 20.7 0 0 40 6.1 O
20 - 11:00 21.1 0 0 38 6.7 O
Apalmet utiliza cookies propias y de terceros para mejorar la usabilidad y la experiencia web. Política de cookies.